Time;durP1;ratioP1;P1;durP2;ratioP2;P2;SDS_P1;SDS_P2;PMS_P1;PMS_P2;Temp;Humidity;BMP_temperature;BMP_pressure;BME280_temperature;BME280_humidity;BME280_pressure;Samples;Min_cycle;Max_cycle;Signal;HPM_P1;HPM_P2
2022/01/06 00:00:22;;;;;;;161.52;85.95;;;;;;;;;;5031824;28;20025;-69
2022/01/06 00:02:48;;;;;;;144.43;81.63;;;;;;;;;;5032521;28;20136;-68
2022/01/06 00:05:13;;;;;;;149.40;77.78;;;;;;;;;;5033937;28;20576;-66
2022/01/06 00:07:39;;;;;;;150.38;83.22;;;;;;;;;;5032156;28;20037;-64
2022/01/06 00:10:10;;;;;;;151.27;78.25;;;;;;;;;;5032448;28;20033;-66
2022/01/06 00:13:12;;;;;;;141.88;73.25;;;;;;;;;;5031447;28;20057;-67
2022/01/06 00:15:35;;;;;;;132.75;72.55;;;;;;;;;;5030375;28;20038;-67
2022/01/06 00:26:19;;;;;;;102.75;54.33;;;;;;;;;;4989357;28;20150;-66
2022/01/06 00:28:45;;;;;;;92.03;50.45;;;;;;;;;;4990610;28;20093;-66
2022/01/06 00:31:11;;;;;;;107.82;56.55;;;;;;;;;;5009601;28;20057;-65
2022/01/06 00:33:37;;;;;;;103.63;55.50;;;;;;;;;;5031735;28;20117;-66
2022/01/06 00:36:03;;;;;;;98.93;52.92;;;;;;;;;;5030420;28;20048;-65
2022/01/06 00:38:29;;;;;;;95.47;51.95;;;;;;;;;;5031720;28;20104;-66
2022/01/06 00:40:56;;;;;;;89.75;49.30;;;;;;;;;;5031818;28;20065;-65
2022/01/06 00:43:21;;;;;;;76.03;44.67;;;;;;;;;;5031603;28;20429;-65
2022/01/06 00:45:47;;;;;;;82.50;44.78;;;;;;;;;;5031332;28;20030;-67
2022/01/06 00:48:13;;;;;;;79.78;45.20;;;;;;;;;;5030782;28;20025;-65
2022/01/06 00:50:41;;;;;;;64.90;37.53;;;;;;;;;;5030934;28;20124;-65
2022/01/06 00:53:07;;;;;;;66.05;37.92;;;;;;;;;;5031370;28;20105;-65
2022/01/06 00:55:35;;;;;;;57.15;33.53;;;;;;;;;;5031446;28;20084;-66
2022/01/06 00:58:01;;;;;;;74.15;38.50;;;;;;;;;;5031548;28;20033;-65
2022/01/06 01:00:31;;;;;;;63.85;35.63;;;;;;;;;;5031305;28;20041;-65
2022/01/06 01:02:58;;;;;;;58.58;33.38;;;;;;;;;;5031303;28;20060;-65
2022/01/06 01:05:24;;;;;;;57.70;34.53;;;;;;;;;;5031401;28;20045;-66
2022/01/06 01:07:49;;;;;;;79.20;40.55;;;;;;;;;;5039047;28;20052;-64
2022/01/06 01:10:15;;;;;;;66.97;38.33;;;;;;;;;;5030722;28;20057;-66
2022/01/06 01:12:46;;;;;;;77.55;41.75;;;;;;;;;;5031682;28;20026;-66
2022/01/06 01:15:19;;;;;;;82.78;47.17;;;;;;;;;;5031370;28;20030;-66
2022/01/06 01:17:47;;;;;;;90.43;49.50;;;;;;;;;;5032562;28;20025;-66
2022/01/06 01:20:14;;;;;;;80.90;45.85;;;;;;;;;;5038914;28;20042;-66
2022/01/06 01:22:40;;;;;;;92.03;51.65;;;;;;;;;;5035576;28;20036;-67
2022/01/06 01:25:06;;;;;;;86.28;48.92;;;;;;;;;;5034949;28;20476;-67
2022/01/06 01:27:38;;;;;;;100.65;52.35;;;;;;;;;;5044904;28;20074;-66
2022/01/06 01:30:10;;;;;;;92.22;47.38;;;;;;;;;;5031060;28;20054;-66
2022/01/06 01:32:37;;;;;;;73.97;42.60;;;;;;;;;;5034766;28;20046;-66
2022/01/06 01:35:05;;;;;;;70.85;40.40;;;;;;;;;;5035329;28;20147;-66
2022/01/06 01:37:31;;;;;;;72.57;40.10;;;;;;;;;;5035305;28;20029;-66
2022/01/06 01:39:58;;;;;;;69.93;39.67;;;;;;;;;;5035061;28;20100;-66
2022/01/06 01:42:25;;;;;;;66.68;37.20;;;;;;;;;;5034793;28;20472;-66
2022/01/06 01:44:52;;;;;;;62.00;37.00;;;;;;;;;;5034735;28;20051;-66
2022/01/06 01:47:39;;;;;;;65.75;38.03;;;;;;;;;;5034198;28;20033;-66
2022/01/06 01:52:38;;;;;;;74.35;43.08;;;;;;;;;;5054787;28;20036;-66
2022/01/06 01:55:04;;;;;;;104.63;57.58;;;;;;;;;;5054270;28;20033;-64
2022/01/06 01:57:30;;;;;;;99.78;53.97;;;;;;;;;;5054784;28;20061;-66
2022/01/06 01:59:56;;;;;;;101.50;54.85;;;;;;;;;;5054521;28;20060;-65
2022/01/06 02:02:22;;;;;;;93.93;52.47;;;;;;;;;;5054012;28;20405;-66
2022/01/06 02:04:50;;;;;;;97.72;50.72;;;;;;;;;;5054732;28;20036;-66
2022/01/06 02:07:15;;;;;;;92.38;48.88;;;;;;;;;;5054770;28;20029;-65
2022/01/06 02:09:41;;;;;;;81.25;44.63;;;;;;;;;;5054095;28;20083;-65
2022/01/06 02:12:07;;;;;;;83.82;46.70;;;;;;;;;;5054689;28;20487;-66
2022/01/06 02:14:34;;;;;;;84.00;45.13;;;;;;;;;;5054423;28;20494;-66
2022/01/06 02:17:00;;;;;;;80.50;44.38;;;;;;;;;;5053988;28;20127;-66
2022/01/06 02:19:26;;;;;;;85.93;44.42;;;;;;;;;;5054130;28;20104;-66
2022/01/06 02:21:52;;;;;;;90.60;46.47;;;;;;;;;;5053515;28;20396;-66
2022/01/06 02:24:18;;;;;;;80.88;45.63;;;;;;;;;;5053482;28;20023;-66
2022/01/06 02:26:44;;;;;;;93.85;52.05;;;;;;;;;;5054336;28;20078;-66
2022/01/06 02:29:10;;;;;;;95.18;49.60;;;;;;;;;;5052908;28;20049;-66
2022/01/06 02:31:46;;;;;;;90.10;46.72;;;;;;;;;;5053905;28;20052;-65
2022/01/06 02:34:11;;;;;;;76.20;43.75;;;;;;;;;;5053537;28;20033;-65
2022/01/06 02:36:37;;;;;;;80.53;45.10;;;;;;;;;;5053831;28;20494;-65
2022/01/06 02:39:03;;;;;;;83.88;45.40;;;;;;;;;;5053839;28;20044;-65
2022/01/06 02:41:29;;;;;;;75.03;42.95;;;;;;;;;;5054155;28;20025;-65
2022/01/06 02:43:56;;;;;;;77.90;42.65;;;;;;;;;;5054087;28;20048;-65
2022/01/06 02:46:22;;;;;;;73.55;40.10;;;;;;;;;;5053557;28;20100;-66
2022/01/06 02:48:48;;;;;;;71.38;39.10;;;;;;;;;;5053711;28;20033;-66
2022/01/06 02:51:13;;;;;;;61.22;33.78;;;;;;;;;;5052364;28;20039;-65
2022/01/06 02:53:39;;;;;;;68.15;36.95;;;;;;;;;;5053731;28;20037;-66
2022/01/06 02:56:05;;;;;;;63.35;36.17;;;;;;;;;;5038076;28;20424;-66
2022/01/06 02:58:31;;;;;;;64.07;36.15;;;;;;;;;;5033710;28;20415;-67
2022/01/06 03:00:56;;;;;;;59.80;32.97;;;;;;;;;;5046341;28;20199;-66
2022/01/06 03:03:22;;;;;;;66.80;35.75;;;;;;;;;;5037873;28;20053;-66
2022/01/06 03:05:48;;;;;;;57.03;34.03;;;;;;;;;;5033703;28;20108;-67
2022/01/06 03:08:14;;;;;;;59.92;33.92;;;;;;;;;;5033117;28;20488;-67
2022/01/06 03:10:43;;;;;;;55.75;33.25;;;;;;;;;;5033337;28;20464;-66
2022/01/06 03:13:09;;;;;;;69.43;36.53;;;;;;;;;;5033387;28;20025;-66
2022/01/06 03:15:36;;;;;;;66.55;36.13;;;;;;;;;;5040518;28;20037;-65
2022/01/06 03:18:02;;;;;;;60.53;34.47;;;;;;;;;;5044920;28;20045;-64
2022/01/06 03:20:29;;;;;;;54.17;32.92;;;;;;;;;;5033103;28;20030;-65
2022/01/06 03:22:55;;;;;;;58.45;33.70;;;;;;;;;;5032816;28;20044;-66
2022/01/06 03:25:22;;;;;;;54.63;33.42;;;;;;;;;;5017804;28;20042;-66
2022/01/06 03:27:49;;;;;;;70.38;38.90;;;;;;;;;;5033368;28;20040;-66
2022/01/06 03:30:18;;;;;;;57.45;34.70;;;;;;;;;;5049157;28;20049;-66
2022/01/06 03:32:45;;;;;;;57.17;32.38;;;;;;;;;;5033207;28;20037;-65
2022/01/06 03:35:12;;;;;;;58.03;32.60;;;;;;;;;;5033988;28;20025;-66
2022/01/06 03:37:39;;;;;;;59.25;32.65;;;;;;;;;;5052300;28;20029;-65
2022/01/06 03:40:06;;;;;;;56.17;30.73;;;;;;;;;;5052369;28;20031;-66
2022/01/06 03:42:33;;;;;;;55.40;32.78;;;;;;;;;;5051579;28;20442;-67
2022/01/06 03:44:59;;;;;;;57.38;32.72;;;;;;;;;;5052986;28;20025;-66
2022/01/06 03:47:25;;;;;;;61.67;35.28;;;;;;;;;;5049458;28;20075;-66
2022/01/06 03:49:51;;;;;;;58.97;33.42;;;;;;;;;;5032447;28;20057;-67
2022/01/06 03:52:17;;;;;;;53.78;30.58;;;;;;;;;;5031287;28;20077;-67
2022/01/06 03:54:42;;;;;;;58.63;34.80;;;;;;;;;;5030746;28;20033;-67
2022/01/06 03:57:08;;;;;;;53.72;31.35;;;;;;;;;;5032626;28;20068;-67
2022/01/06 03:59:35;;;;;;;49.30;30.38;;;;;;;;;;5029779;28;20037;-66
2022/01/06 04:02:03;;;;;;;58.97;33.95;;;;;;;;;;5032081;28;20560;-67
2022/01/06 04:04:28;;;;;;;51.83;30.85;;;;;;;;;;5032785;28;20021;-66
2022/01/06 04:06:54;;;;;;;49.78;30.45;;;;;;;;;;5032260;28;20472;-67
2022/01/06 04:09:20;;;;;;;56.05;32.10;;;;;;;;;;5031397;28;20079;-68
2022/01/06 04:11:46;;;;;;;56.75;32.15;;;;;;;;;;5032010;28;20492;-67
2022/01/06 04:14:12;;;;;;;60.22;32.00;;;;;;;;;;5032224;28;20036;-65
2022/01/06 04:16:39;;;;;;;59.83;31.00;;;;;;;;;;5032084;28;20039;-66
2022/01/06 04:19:06;;;;;;;51.90;31.70;;;;;;;;;;5032051;28;20369;-66
2022/01/06 04:21:31;;;;;;;54.83;32.28;;;;;;;;;;5030646;28;20072;-67
2022/01/06 04:23:57;;;;;;;51.97;31.23;;;;;;;;;;5032513;28;20542;-65
2022/01/06 04:26:23;;;;;;;55.30;32.65;;;;;;;;;;5032042;28;20119;-66
2022/01/06 04:28:49;;;;;;;56.58;30.77;;;;;;;;;;5031664;28;20052;-67
2022/01/06 04:31:15;;;;;;;51.95;31.45;;;;;;;;;;5031498;28;20407;-68
2022/01/06 04:33:41;;;;;;;60.97;34.78;;;;;;;;;;5031929;28;20035;-66
2022/01/06 04:36:08;;;;;;;65.65;36.13;;;;;;;;;;5031699;28;20030;-66
2022/01/06 04:38:36;;;;;;;61.17;35.83;;;;;;;;;;5048484;28;20035;-66
2022/01/06 04:41:02;;;;;;;56.58;32.00;;;;;;;;;;5033540;28;20045;-66
2022/01/06 04:43:27;;;;;;;55.17;34.25;;;;;;;;;;5031813;28;20388;-65
2022/01/06 04:45:53;;;;;;;60.15;34.72;;;;;;;;;;5031484;28;20091;-67
2022/01/06 04:48:19;;;;;;;66.65;37.80;;;;;;;;;;5031576;28;20022;-66
2022/01/06 04:50:45;;;;;;;69.22;36.30;;;;;;;;;;5030218;28;20083;-66
2022/01/06 04:53:10;;;;;;;56.92;34.28;;;;;;;;;;5041323;28;20021;-65
2022/01/06 04:55:36;;;;;;;54.45;30.38;;;;;;;;;;5051523;28;20060;-66
2022/01/06 04:58:02;;;;;;;49.25;28.70;;;;;;;;;;5051662;28;20053;-66
2022/01/06 05:00:28;;;;;;;48.15;29.17;;;;;;;;;;5048216;28;20029;-66
2022/01/06 05:02:54;;;;;;;51.00;28.02;;;;;;;;;;5031756;28;20026;-67
2022/01/06 05:05:19;;;;;;;44.55;26.38;;;;;;;;;;5031725;28;20033;-65
2022/01/06 05:07:45;;;;;;;47.80;28.40;;;;;;;;;;5009715;28;20042;-66
2022/01/06 05:10:11;;;;;;;49.33;27.60;;;;;;;;;;5012300;28;20053;-66
2022/01/06 05:12:44;;;;;;;51.65;30.02;;;;;;;;;;5011960;28;20030;-66
2022/01/06 05:15:11;;;;;;;44.72;25.30;;;;;;;;;;5012141;28;20061;-66
2022/01/06 05:17:37;;;;;;;48.15;27.02;;;;;;;;;;5030320;28;20032;-66
2022/01/06 05:20:04;;;;;;;42.10;26.17;;;;;;;;;;5025036;28;20033;-66
2022/01/06 05:22:31;;;;;;;45.92;26.00;;;;;;;;;;5016301;28;20061;-66
2022/01/06 05:24:57;;;;;;;49.47;26.10;;;;;;;;;;5011707;28;20034;-68
2022/01/06 05:27:23;;;;;;;55.10;29.00;;;;;;;;;;5031655;28;20128;-67
2022/01/06 05:29:49;;;;;;;52.67;27.98;;;;;;;;;;5031134;28;20041;-66
2022/01/06 05:32:15;;;;;;;48.08;26.00;;;;;;;;;;5031007;28;20037;-66
2022/01/06 05:34:40;;;;;;;45.67;26.90;;;;;;;;;;5032140;28;20052;-66
2022/01/06 05:37:06;;;;;;;44.70;26.77;;;;;;;;;;5032339;28;20140;-66
2022/01/06 05:39:32;;;;;;;45.50;26.60;;;;;;;;;;5032310;28;20037;-66
2022/01/06 05:41:58;;;;;;;50.42;28.67;;;;;;;;;;5032356;28;20076;-65
2022/01/06 05:44:25;;;;;;;48.42;28.27;;;;;;;;;;5031989;28;20077;-66
2022/01/06 05:46:51;;;;;;;48.00;28.08;;;;;;;;;;5031684;28;20052;-67
2022/01/06 05:49:17;;;;;;;43.83;25.15;;;;;;;;;;5032053;28;20469;-69
2022/01/06 05:51:43;;;;;;;59.10;30.92;;;;;;;;;;5032130;28;20021;-66
2022/01/06 05:54:09;;;;;;;55.50;31.13;;;;;;;;;;5032006;28;20029;-67
2022/01/06 05:56:35;;;;;;;49.85;28.60;;;;;;;;;;5032064;28;20028;-68
2022/01/06 05:59:00;;;;;;;43.05;25.92;;;;;;;;;;5031479;28;20485;-66
2022/01/06 06:01:26;;;;;;;41.65;23.85;;;;;;;;;;5030569;28;20033;-66
2022/01/06 06:03:54;;;;;;;37.58;21.13;;;;;;;;;;5033997;28;20103;-67
2022/01/06 06:06:20;;;;;;;35.28;21.45;;;;;;;;;;5035106;28;20021;-68
2022/01/06 06:08:46;;;;;;;32.60;20.27;;;;;;;;;;5035493;28;20041;-66
2022/01/06 06:11:12;;;;;;;30.92;18.00;;;;;;;;;;5039906;28;20032;-67
2022/01/06 06:13:37;;;;;;;32.00;17.33;;;;;;;;;;5047588;28;20356;-68
2022/01/06 06:16:03;;;;;;;28.25;17.58;;;;;;;;;;5056490;28;20033;-66
2022/01/06 06:18:29;;;;;;;31.58;18.88;;;;;;;;;;5055487;28;20037;-71
2022/01/06 06:20:55;;;;;;;34.50;19.70;;;;;;;;;;5055020;28;20023;-67
2022/01/06 06:23:22;;;;;;;32.22;18.52;;;;;;;;;;5055171;28;20029;-68
2022/01/06 06:25:48;;;;;;;30.05;17.88;;;;;;;;;;5054643;28;20025;-68
2022/01/06 06:28:13;;;;;;;38.38;22.67;;;;;;;;;;5054932;28;20056;-65
2022/01/06 06:30:39;;;;;;;32.28;18.95;;;;;;;;;;5054660;28;20045;-65
2022/01/06 06:33:05;;;;;;;42.28;20.70;;;;;;;;;;5054750;28;20487;-67
2022/01/06 06:35:32;;;;;;;35.47;19.73;;;;;;;;;;5054662;28;20021;-66
2022/01/06 06:37:58;;;;;;;34.40;21.42;;;;;;;;;;5054502;28;20036;-66
2022/01/06 06:40:24;;;;;;;33.90;19.60;;;;;;;;;;5054857;28;20499;-66
2022/01/06 06:42:51;;;;;;;29.67;18.40;;;;;;;;;;5054592;28;20119;-65
2022/01/06 06:45:19;;;;;;;31.85;18.40;;;;;;;;;;5054710;28;20109;-66
2022/01/06 06:47:46;;;;;;;45.50;25.60;;;;;;;;;;5054649;28;20068;-67
2022/01/06 06:50:15;;;;;;;45.72;26.73;;;;;;;;;;5053978;28;20029;-66
2022/01/06 06:52:43;;;;;;;62.80;32.45;;;;;;;;;;5047449;28;20036;-66
2022/01/06 06:55:09;;;;;;;58.38;30.38;;;;;;;;;;5034261;28;20025;-69
2022/01/06 06:57:34;;;;;;;49.10;27.60;;;;;;;;;;5034131;28;20484;-70
2022/01/06 07:00:04;;;;;;;38.97;23.20;;;;;;;;;;5034474;28;20036;-71
2022/01/06 07:02:31;;;;;;;37.53;21.58;;;;;;;;;;5033989;28;20041;-72
2022/01/06 07:04:57;;;;;;;35.63;22.45;;;;;;;;;;5037037;28;20012;-71
2022/01/06 07:07:23;;;;;;;34.60;20.20;;;;;;;;;;5045475;28;20541;-70
2022/01/06 07:09:50;;;;;;;38.00;21.73;;;;;;;;;;5034512;28;20106;-70
2022/01/06 07:12:16;;;;;;;36.13;21.58;;;;;;;;;;5034064;28;20546;-69
2022/01/06 07:14:42;;;;;;;39.50;23.33;;;;;;;;;;5033963;28;20052;-72
2022/01/06 07:17:08;;;;;;;37.30;22.75;;;;;;;;;;5040180;28;20029;-70
2022/01/06 07:19:33;;;;;;;40.17;22.65;;;;;;;;;;5042833;28;20159;-71
2022/01/06 07:21:59;;;;;;;41.00;23.77;;;;;;;;;;5033860;28;20048;-72
2022/01/06 07:24:25;;;;;;;41.08;23.15;;;;;;;;;;5037314;28;20029;-71
2022/01/06 07:26:51;;;;;;;42.67;25.45;;;;;;;;;;5035404;28;20104;-70
2022/01/06 07:29:17;;;;;;;47.90;29.38;;;;;;;;;;5043086;28;20104;-72
2022/01/06 07:31:43;;;;;;;50.10;30.05;;;;;;;;;;5058899;28;20045;-73
2022/01/06 07:34:08;;;;;;;48.35;29.65;;;;;;;;;;5046207;28;20044;-69
2022/01/06 07:36:34;;;;;;;45.63;28.38;;;;;;;;;;5033510;28;20398;-71
2022/01/06 07:39:01;;;;;;;53.83;30.48;;;;;;;;;;5033309;28;20467;-70
2022/01/06 07:41:26;;;;;;;53.53;31.33;;;;;;;;;;5032388;28;20034;-69
2022/01/06 07:43:52;;;;;;;56.00;30.90;;;;;;;;;;5037379;28;20110;-71
2022/01/06 07:46:18;;;;;;;50.72;30.25;;;;;;;;;;5052136;28;20029;-70
2022/01/06 07:48:56;;;;;;;49.33;31.58;;;;;;;;;;5053036;28;20029;-71
2022/01/06 07:51:28;;;;;;;54.50;30.95;;;;;;;;;;5053290;28;20032;-70
2022/01/06 07:53:54;;;;;;;48.70;28.58;;;;;;;;;;5052973;28;20453;-71
2022/01/06 07:56:20;;;;;;;44.47;27.85;;;;;;;;;;5035795;28;20030;-71
2022/01/06 07:58:46;;;;;;;37.70;23.77;;;;;;;;;;5033384;28;20477;-71
2022/01/06 08:01:12;;;;;;;48.30;30.02;;;;;;;;;;5033552;28;20053;-69
2022/01/06 08:03:39;;;;;;;48.28;29.02;;;;;;;;;;5033262;28;20075;-71
2022/01/06 08:06:04;;;;;;;42.72;27.60;;;;;;;;;;5033098;28;20026;-71
2022/01/06 08:08:30;;;;;;;46.05;29.20;;;;;;;;;;5032862;28;20037;-71
2022/01/06 08:10:56;;;;;;;49.63;28.55;;;;;;;;;;5033399;28;20036;-73
2022/01/06 08:13:22;;;;;;;60.25;30.55;;;;;;;;;;5032974;28;20061;-70
2022/01/06 08:15:48;;;;;;;75.13;37.50;;;;;;;;;;5046304;28;20032;-71
2022/01/06 08:18:13;;;;;;;68.13;34.53;;;;;;;;;;5052805;28;20248;-70
2022/01/06 08:20:39;;;;;;;43.47;27.50;;;;;;;;;;5052784;28;20081;-71
2022/01/06 08:23:06;;;;;;;41.78;25.67;;;;;;;;;;5039002;28;20033;-71
2022/01/06 08:25:33;;;;;;;42.63;25.95;;;;;;;;;;5052131;28;20380;-71
2022/01/06 08:27:59;;;;;;;40.75;23.20;;;;;;;;;;5051656;28;20032;-71
2022/01/06 08:30:24;;;;;;;37.58;21.95;;;;;;;;;;5052253;28;20040;-70
2022/01/06 08:32:50;;;;;;;45.70;24.98;;;;;;;;;;5051940;28;20048;-70
2022/01/06 08:35:16;;;;;;;43.35;24.98;;;;;;;;;;5052494;28;20479;-70
2022/01/06 08:37:43;;;;;;;38.70;23.35;;;;;;;;;;5052389;28;20044;-71
2022/01/06 08:40:09;;;;;;;33.30;21.77;;;;;;;;;;5051038;28;20017;-69
2022/01/06 08:42:35;;;;;;;31.00;20.02;;;;;;;;;;5052559;28;20037;-70
2022/01/06 08:45:02;;;;;;;31.55;19.63;;;;;;;;;;5052330;28;20388;-70
2022/01/06 08:47:29;;;;;;;35.50;21.52;;;;;;;;;;5051966;28;20036;-70
2022/01/06 08:49:55;;;;;;;43.63;27.52;;;;;;;;;;5052188;28;20107;-70
2022/01/06 08:52:22;;;;;;;50.22;28.98;;;;;;;;;;5049892;28;20454;-72
2022/01/06 08:54:48;;;;;;;51.40;30.58;;;;;;;;;;5051238;28;20016;-72
2022/01/06 08:57:14;;;;;;;49.08;31.67;;;;;;;;;;5032248;28;20053;-72
2022/01/06 08:59:40;;;;;;;49.08;30.83;;;;;;;;;;5031833;28;20017;-71
2022/01/06 09:02:06;;;;;;;47.53;30.92;;;;;;;;;;5031846;28;20029;-71
2022/01/06 09:04:32;;;;;;;49.03;30.60;;;;;;;;;;5032303;28;20431;-71
2022/01/06 09:06:58;;;;;;;44.45;28.90;;;;;;;;;;5038155;28;20500;-71
2022/01/06 09:09:25;;;;;;;43.65;28.42;;;;;;;;;;5054793;28;20112;-73
2022/01/06 09:11:51;;;;;;;43.60;29.55;;;;;;;;;;5040032;28;20025;-72
2022/01/06 09:14:17;;;;;;;42.53;27.73;;;;;;;;;;5040868;28;20058;-68
2022/01/06 09:16:43;;;;;;;42.88;28.48;;;;;;;;;;5034495;28;20029;-71
2022/01/06 09:19:09;;;;;;;43.10;28.75;;;;;;;;;;5041002;28;20033;-71
2022/01/06 09:21:35;;;;;;;48.00;28.02;;;;;;;;;;5038904;28;20046;-71
2022/01/06 09:24:02;;;;;;;42.58;26.92;;;;;;;;;;5038784;28;20032;-73
2022/01/06 09:26:28;;;;;;;46.83;28.13;;;;;;;;;;5040030;28;20128;-73
2022/01/06 09:28:54;;;;;;;39.83;25.88;;;;;;;;;;5031841;28;20252;-71
2022/01/06 09:31:19;;;;;;;37.90;25.15;;;;;;;;;;5037192;28;20107;-72
2022/01/06 09:33:45;;;;;;;40.63;26.35;;;;;;;;;;5038087;28;20026;-73
2022/01/06 09:36:11;;;;;;;38.70;26.30;;;;;;;;;;5031645;28;20029;-72
2022/01/06 09:38:37;;;;;;;37.80;24.58;;;;;;;;;;5033380;28;20025;-73
2022/01/06 09:41:06;;;;;;;41.70;26.17;;;;;;;;;;5035630;28;20361;-71
2022/01/06 09:43:33;;;;;;;24.13;15.57;;;;;;;;;;5035855;28;20025;-71
2022/01/06 09:46:08;;;;;;;24.33;15.90;;;;;;;;;;5036067;28;20037;-71
2022/01/06 09:48:36;;;;;;;24.65;15.70;;;;;;;;;;5034524;28;20029;-72
2022/01/06 09:51:02;;;;;;;22.20;14.93;;;;;;;;;;5035062;28;20468;-70
2022/01/06 09:53:28;;;;;;;26.40;15.45;;;;;;;;;;5037786;28;20033;-71
2022/01/06 09:55:54;;;;;;;25.65;16.23;;;;;;;;;;5037780;28;20072;-71
2022/01/06 09:58:26;;;;;;;30.83;18.30;;;;;;;;;;5042630;28;20029;-74
2022/01/06 10:00:55;;;;;;;23.42;15.18;;;;;;;;;;5053031;28;20037;-72
2022/01/06 10:03:31;;;;;;;21.75;14.00;;;;;;;;;;5033366;28;20041;-70
2022/01/06 10:06:08;;;;;;;21.45;13.80;;;;;;;;;;5033034;28;20029;-73
2022/01/06 10:08:34;;;;;;;26.60;14.95;;;;;;;;;;5032662;28;20120;-70
2022/01/06 10:11:15;;;;;;;22.50;14.93;;;;;;;;;;5033061;28;20109;-73
2022/01/06 10:13:45;;;;;;;25.75;16.73;;;;;;;;;;5038871;28;20383;-70
2022/01/06 10:16:16;;;;;;;28.00;16.98;;;;;;;;;;5054246;28;20040;-73
2022/01/06 10:18:57;;;;;;;24.75;16.30;;;;;;;;;;5054937;28;20108;-71
2022/01/06 10:21:24;;;;;;;27.48;16.90;;;;;;;;;;5054794;28;20476;-73
2022/01/06 10:24:00;;;;;;;29.98;17.55;;;;;;;;;;5054776;28;20033;-71
2022/01/06 10:26:26;;;;;;;28.98;17.80;;;;;;;;;;5054801;28;20057;-72
2022/01/06 10:28:52;;;;;;;34.17;21.05;;;;;;;;;;5054868;28;20075;-71
2022/01/06 10:31:31;;;;;;;29.73;17.30;;;;;;;;;;5054451;28;20084;-71
2022/01/06 10:33:57;;;;;;;24.52;16.27;;;;;;;;;;5054577;28;20073;-71
2022/01/06 10:36:31;;;;;;;24.00;16.50;;;;;;;;;;5054121;28;20352;-69
2022/01/06 10:39:00;;;;;;;27.67;16.02;;;;;;;;;;5053934;28;20036;-73
2022/01/06 10:41:27;;;;;;;23.00;14.98;;;;;;;;;;5054111;28;20108;-70
2022/01/06 10:43:56;;;;;;;25.83;15.68;;;;;;;;;;5054142;28;20029;-71
2022/01/06 10:46:31;;;;;;;30.58;17.40;;;;;;;;;;5053682;28;20107;-72
2022/01/06 10:48:59;;;;;;;31.20;17.63;;;;;;;;;;5053783;28;20041;-70
2022/01/06 10:51:32;;;;;;;33.45;20.65;;;;;;;;;;5053158;28;20097;-71
2022/01/06 10:53:58;;;;;;;;;;;;;;;;;;5054134;28;20112;-70
2022/01/06 10:56:24;;;;;;;31.77;17.92;;;;;;;;;;5054060;28;20012;-71
2022/01/06 10:58:56;;;;;;;25.75;15.27;;;;;;;;;;5053987;28;20033;-71
2022/01/06 11:01:22;;;;;;;24.75;14.88;;;;;;;;;;5054035;28;20033;-72
2022/01/06 11:03:47;;;;;;;22.48;13.35;;;;;;;;;;5054279;28;20033;-71
2022/01/06 11:06:13;;;;;;;24.58;13.55;;;;;;;;;;5068736;28;20041;-70
2022/01/06 11:08:41;;;;;;;26.25;14.30;;;;;;;;;;5053621;28;20151;-72
2022/01/06 11:13:41;;;;;;;21.67;14.07;;;;;;;;;;5053791;28;20040;-71
2022/01/06 11:16:12;;;;;;;25.90;15.65;;;;;;;;;;5053720;28;20043;-71
2022/01/06 11:18:41;;;;;;;30.88;16.48;;;;;;;;;;5053954;28;20060;-71
2022/01/06 11:21:13;;;;;;;24.58;14.90;;;;;;;;;;5053649;28;20498;-70
2022/01/06 11:23:40;;;;;;;19.45;12.95;;;;;;;;;;5053294;28;20103;-70
2022/01/06 11:26:06;;;;;;;23.13;13.85;;;;;;;;;;5052658;28;20079;-72
2022/01/06 11:28:33;;;;;;;18.98;10.68;;;;;;;;;;5053013;28;20105;-71
2022/01/06 11:31:13;;;;;;;23.40;13.27;;;;;;;;;;5053064;28;20045;-70
2022/01/06 11:33:40;;;;;;;37.33;19.35;;;;;;;;;;5053214;28;20037;-70
2022/01/06 11:36:16;;;;;;;27.45;13.77;;;;;;;;;;5053097;28;20028;-72
2022/01/06 11:38:47;;;;;;;28.42;15.60;;;;;;;;;;5053209;28;20039;-70
2022/01/06 11:41:14;;;;;;;21.88;11.93;;;;;;;;;;5053430;28;20468;-70
2022/01/06 11:43:43;;;;;;;20.27;9.65;;;;;;;;;;5053317;28;20021;-72
2022/01/06 11:46:10;;;;;;;16.15;10.30;;;;;;;;;;5052779;28;20112;-72
2022/01/06 11:48:50;;;;;;;16.38;10.10;;;;;;;;;;5053195;28;20460;-71
2022/01/06 11:51:31;;;;;;;20.35;11.57;;;;;;;;;;5053045;28;20060;-70
2022/01/06 11:53:58;;;;;;;16.35;9.02;;;;;;;;;;5053032;28;20124;-70
2022/01/06 11:56:25;;;;;;;19.20;10.18;;;;;;;;;;5053170;28;20033;-71
2022/01/06 11:59:03;;;;;;;15.82;10.20;;;;;;;;;;5053194;28;20120;-70
2022/01/06 12:01:44;;;;;;;13.85;9.63;;;;;;;;;;5052651;28;20025;-71
2022/01/06 12:04:16;;;;;;;17.20;11.05;;;;;;;;;;5052889;28;20061;-71
2022/01/06 12:06:43;;;;;;;15.80;10.45;;;;;;;;;;5051500;28;20108;-71
2022/01/06 12:09:22;;;;;;;24.75;12.48;;;;;;;;;;5053346;28;20084;-71
2022/01/06 12:12:06;;;;;;;17.88;12.13;;;;;;;;;;5052681;28;20033;-71
2022/01/06 12:14:33;;;;;;;18.52;12.13;;;;;;;;;;5052542;28;20439;-72
2022/01/06 12:17:06;;;;;;;20.98;11.60;;;;;;;;;;5052473;28;20033;-70
2022/01/06 12:19:33;;;;;;;16.50;11.30;;;;;;;;;;5052851;28;20318;-70
2022/01/06 12:21:59;;;;;;;19.27;12.05;;;;;;;;;;5052444;28;20561;-70
2022/01/06 12:24:25;;;;;;;18.20;11.93;;;;;;;;;;5048366;28;20029;-71
2022/01/06 12:26:50;;;;;;;22.95;14.07;;;;;;;;;;5043646;28;20043;-69
2022/01/06 12:29:20;;;;;;;26.20;14.15;;;;;;;;;;5032368;28;20087;-70
2022/01/06 12:31:47;;;;;;;21.35;14.38;;;;;;;;;;5049500;28;20041;-70
2022/01/06 12:34:15;;;;;;;21.92;13.30;;;;;;;;;;5044599;28;20540;-71
2022/01/06 12:36:43;;;;;;;30.23;13.32;;;;;;;;;;5030933;28;20025;-70
2022/01/06 12:39:15;;;;;;;27.77;14.48;;;;;;;;;;5032242;28;20045;-70
2022/01/06 12:41:42;;;;;;;23.23;14.32;;;;;;;;;;5032109;28;20044;-70
2022/01/06 12:44:09;;;;;;;25.13;15.35;;;;;;;;;;5041140;28;20036;-70
2022/01/06 12:46:37;;;;;;;29.88;16.20;;;;;;;;;;5052034;28;20033;-69
2022/01/06 12:49:07;;;;;;;21.92;13.93;;;;;;;;;;5051808;28;20071;-69
2022/01/06 12:51:38;;;;;;;24.20;14.48;;;;;;;;;;5050918;28;20029;-70
2022/01/06 12:54:08;;;;;;;20.45;13.38;;;;;;;;;;5051210;28;20029;-71
2022/01/06 12:56:39;;;;;;;22.23;13.43;;;;;;;;;;5052204;28;20032;-70
2022/01/06 12:59:17;;;;;;;22.05;13.90;;;;;;;;;;5050817;28;20035;-70
2022/01/06 13:01:44;;;;;;;23.92;14.10;;;;;;;;;;5048714;28;20035;-70
2022/01/06 13:04:11;;;;;;;25.92;13.88;;;;;;;;;;5039021;28;20056;-70
2022/01/06 13:06:40;;;;;;;25.50;14.27;;;;;;;;;;5039847;28;20025;-71
2022/01/06 13:09:20;;;;;;;20.48;12.88;;;;;;;;;;5051502;28;20032;-72
2022/01/06 13:11:48;;;;;;;21.00;12.57;;;;;;;;;;5031787;28;20483;-71
2022/01/06 13:14:45;;;;;;;24.40;13.88;;;;;;;;;;5033220;28;20025;-70
2022/01/06 13:17:18;;;;;;;23.63;13.00;;;;;;;;;;5036168;28;20057;-70
2022/01/06 13:20:10;;;;;;;23.43;14.60;;;;;;;;;;5036268;28;20064;-70
2022/01/06 13:23:12;;;;;;;21.58;14.15;;;;;;;;;;5035895;28;20048;-71
2022/01/06 13:25:37;;;;;;;30.75;16.95;;;;;;;;;;5035364;28;20121;-69
2022/01/06 13:28:12;;;;;;;29.20;16.15;;;;;;;;;;5042235;28;20021;-71
2022/01/06 13:30:45;;;;;;;31.13;18.50;;;;;;;;;;5055330;28;20127;-70
2022/01/06 13:33:16;;;;;;;23.40;15.82;;;;;;;;;;5055583;28;20029;-72
2022/01/06 13:35:45;;;;;;;23.20;13.82;;;;;;;;;;5055597;28;20128;-71
2022/01/06 13:38:40;;;;;;;19.05;12.85;;;;;;;;;;5049228;28;20046;-70
2022/01/06 13:41:09;;;;;;;22.63;14.25;;;;;;;;;;5037540;28;20033;-69
2022/01/06 13:43:38;;;;;;;26.17;16.98;;;;;;;;;;5035812;28;20029;-70
2022/01/06 13:46:14;;;;;;;26.17;15.90;;;;;;;;;;5043682;28;20102;-70
2022/01/06 13:48:44;;;;;;;19.33;12.48;;;;;;;;;;5041786;28;20040;-70
2022/01/06 13:51:15;;;;;;;20.92;11.38;;;;;;;;;;5047710;28;20141;-70
2022/01/06 13:53:53;;;;;;;15.45;10.80;;;;;;;;;;5036450;28;20464;-69
2022/01/06 13:56:29;;;;;;;19.52;11.32;;;;;;;;;;5036270;28;20044;-69
2022/01/06 13:58:57;;;;;;;23.83;13.68;;;;;;;;;;5046082;28;20025;-70
2022/01/06 14:01:27;;;;;;;19.98;13.52;;;;;;;;;;5034587;28;20029;-69
2022/01/06 14:03:57;;;;;;;21.80;12.02;;;;;;;;;;5034966;28;20119;-68
2022/01/06 14:06:24;;;;;;;16.70;11.05;;;;;;;;;;5052474;28;20034;-70
2022/01/06 14:08:50;;;;;;;16.73;11.15;;;;;;;;;;5054249;28;20115;-69
2022/01/06 14:11:20;;;;;;;19.05;11.20;;;;;;;;;;5052853;28;20523;-70
2022/01/06 14:13:48;;;;;;;19.73;10.80;;;;;;;;;;5036740;28;20080;-69
2022/01/06 14:16:15;;;;;;;18.70;10.60;;;;;;;;;;5032734;28;20045;-70
2022/01/06 14:18:41;;;;;;;19.33;9.70;;;;;;;;;;5039737;28;20083;-69
2022/01/06 14:21:07;;;;;;;14.15;9.13;;;;;;;;;;5053460;28;20068;-69
2022/01/06 14:23:34;;;;;;;17.02;11.05;;;;;;;;;;5054819;28;20025;-71
2022/01/06 14:26:03;;;;;;;17.05;11.18;;;;;;;;;;5054640;28;20555;-70
2022/01/06 14:28:29;;;;;;;20.05;11.13;;;;;;;;;;5054804;28;20027;-68
2022/01/06 14:31:04;;;;;;;18.40;10.13;;;;;;;;;;5054502;28;20051;-70
2022/01/06 14:33:34;;;;;;;23.02;11.32;;;;;;;;;;5054813;28;20108;-70